Genius Star Xii — 3FDB3 — position and weather

sailwx.info

Track history (hours):
 
Tides and Currents Weather Stations Pressure Air Temp Water Temp Dewpoint Dewpoint Depression Visibility Wind Speed Wind Dir Waves Ship Positions

Genius Star Xii

Last reported at 2018-Jul-13 15:43 UTC. Time now 2018-Jul-22 20:14 UTC.
Position S 29°20' E 031°56'.
Warning: this ship's position is 9 days out of date.

Length 125 m; draft 9.5 m.

Type: Cargo ship. MMSI: 351550000.

Date/timePositionNaut miles runAvg speedWind from/ knotsBaromVisibWave heightAir tempDewpointWater temp
2018-Jul-13 15:43S 29°20' E 031°56'3 9.1
2018-Jul-13 15:25S 29°22' E 031°54'510.0
2018-Jul-13 14:54S 29°26' E 031°51'910.3
2018-Jul-13 14:00S 29°33' E 031°44'2211.2
2018-Jul-13 12:01S 29°44' E 031°21'012.1
2018-Jul-13 11:59S 29°45' E 031°21'612.4
2018-Jul-13 11:30S 29°48' E 031°15'612.5
2018-Jul-13 11:00S 29°51' E 031°10'2 4.6
2018-Jul-13 10:30S 29°54' E 031°09'4 7.4
2018-Jul-13 10:00S 29°57' E 031°12'611.3
2018-Jul-13 09:30S 30°02' E 031°09'  
2018-Jul-10 14:22S 34°38' E 018°53'612.0
2018-Jul-10 13:50S 34°36' E 018°45'412.3
2018-Jul-10 13:30S 34°34' E 018°41'712.1
2018-Jul-10 12:57S 34°31' E 018°33'512.2
2018-Jul-10 12:30S 34°29' E 018°27'612.3
2018-Jul-10 12:00S 34°27' E 018°20'612.2
2018-Jul-10 11:31S 34°25' E 018°13'711.5
2018-Jul-10 10:56S 34°22' E 018°06'511.8
2018-Jul-10 10:30S 34°20' E 018°00'612.4
2018-Jul-10 10:00S 34°15' E 017°56'612.7
2018-Jul-10 09:30S 34°10' E 017°51'712.8
2018-Jul-10 08:58S 34°05' E 017°46'612.7
2018-Jul-10 08:29S 33°60' E 017°42'1212.7
2018-Jul-10 07:34S 33°50' E 017°33'  
Track history (hours):
 
Tides and Currents Weather Stations Pressure Air Temp Water Temp Dewpoint Dewpoint Depression Visibility Wind Speed Wind Dir Waves Ship Positions

Genius Star Xii

Last reported at 2018-Jul-13 15:43 UTC. Time now 2018-Jul-22 20:14 UTC.
Position S 29°20' E 031°56'.
Warning: this ship's position is 9 days out of date.

Length 125 m; draft 9.5 m.

Type: Cargo ship. MMSI: 351550000.

Date/timePositionNaut miles runAvg speedWind from/ knotsBaromVisibWave heightAir tempDewpointWater temp
2018-Jul-13 15:43S 29°20' E 031°56'3 9.1
2018-Jul-13 15:25S 29°22' E 031°54'510.0
2018-Jul-13 14:54S 29°26' E 031°51'910.3
2018-Jul-13 14:00S 29°33' E 031°44'2211.2
2018-Jul-13 12:01S 29°44' E 031°21'012.1
2018-Jul-13 11:59S 29°45' E 031°21'612.4
2018-Jul-13 11:30S 29°48' E 031°15'612.5
2018-Jul-13 11:00S 29°51' E 031°10'2 4.6
2018-Jul-13 10:30S 29°54' E 031°09'4 7.4
2018-Jul-13 10:00S 29°57' E 031°12'611.3
2018-Jul-13 09:30S 30°02' E 031°09'  
2018-Jul-10 14:22S 34°38' E 018°53'612.0
2018-Jul-10 13:50S 34°36' E 018°45'412.3
2018-Jul-10 13:30S 34°34' E 018°41'712.1
2018-Jul-10 12:57S 34°31' E 018°33'512.2
2018-Jul-10 12:30S 34°29' E 018°27'612.3
2018-Jul-10 12:00S 34°27' E 018°20'612.2
2018-Jul-10 11:31S 34°25' E 018°13'711.5
2018-Jul-10 10:56S 34°22' E 018°06'511.8
2018-Jul-10 10:30S 34°20' E 018°00'612.4
2018-Jul-10 10:00S 34°15' E 017°56'612.7
2018-Jul-10 09:30S 34°10' E 017°51'712.8
2018-Jul-10 08:58S 34°05' E 017°46'612.7
2018-Jul-10 08:29S 33°60' E 017°42'1212.7
2018-Jul-10 07:34S 33°50' E 017°33'  

Dump ship's entire track history